Madison, Pennsylvania
Current Conditions -  °F | °C
As of 6:50 PM on Sunday 21 Dec 2014 (Local Time) from KLBE Reporting Station
Broken Clouds Broken Clouds  
Wind Chill: -7°   Ceiling: 20000
Heat Index: -3°   Visibility: 10mi
Dew Point: -5°   Wind: 7mph
Humidity: 86%   Direction: NA
Pressure: 30.25"   Gusts: NA
Location:  40.25°N, 79.68°W
Report Text: KLBE 212350Z VRB06KT 10SM BKN200 M03/M05 A3025
Loading
Personal Weather Stations






























Interactive Weather Map New forecast layout! Learn more

10-Day Weather Forecast

Advertisements
Track Severe Weather on mobile